createdAt,value
2023-03-15T00:01:26.405Z,3.60
2023-03-15T00:03:55.310Z,3.40
2023-03-15T00:06:22.873Z,3.50
2023-03-15T00:08:52.154Z,3.80
2023-03-15T00:11:20.029Z,3.60
2023-03-15T00:13:47.651Z,3.60
2023-03-15T00:16:18.623Z,4.20
2023-03-15T00:18:47.440Z,3.50
2023-03-15T00:21:15.575Z,4.00
2023-03-15T00:23:43.110Z,3.70
2023-03-15T00:26:10.868Z,3.60
2023-03-15T00:28:39.424Z,3.80
2023-03-15T00:31:14.735Z,3.60
2023-03-15T00:33:42.828Z,3.60
2023-03-15T00:36:11.907Z,3.90
2023-03-15T00:38:41.468Z,4.20
2023-03-15T00:41:13.057Z,4.20
2023-03-15T00:43:41.137Z,4.70
2023-03-15T00:46:08.880Z,3.70
2023-03-15T00:48:36.406Z,4.80
2023-03-15T00:51:16.796Z,4.20
2023-03-15T00:53:47.254Z,4.60
2023-03-15T00:56:30.195Z,4.10
2023-03-15T00:58:58.648Z,4.90
2023-03-15T01:01:29.436Z,4.50
2023-03-15T01:03:57.453Z,5.20
2023-03-15T01:06:28.382Z,4.60
2023-03-15T01:08:56.808Z,4.90
2023-03-15T01:11:28.124Z,5.00
2023-03-15T01:13:59.076Z,5.00
2023-03-15T01:16:28.523Z,4.70
2023-03-15T01:18:56.627Z,5.20
2023-03-15T01:21:24.801Z,4.70
2023-03-15T01:26:08.396Z,3.70
2023-03-15T01:28:35.933Z,4.30
2023-03-15T01:31:04.080Z,4.60
2023-03-15T01:33:32.516Z,4.60
2023-03-15T01:36:03.432Z,4.00
2023-03-15T01:38:31.579Z,5.00
2023-03-15T01:40:59.326Z,4.20
2023-03-15T01:43:31.935Z,4.30
2023-03-15T01:46:15.280Z,4.00
2023-03-15T01:48:57.394Z,3.80
2023-03-15T01:51:37.948Z,3.80
2023-03-15T01:54:40.489Z,3.50
2023-03-15T01:57:14.194Z,4.10
2023-03-15T01:59:53.302Z,3.70
2023-03-15T02:02:22.833Z,3.70
2023-03-15T02:04:58.025Z,4.20
2023-03-15T02:07:27.686Z,3.80
2023-03-15T02:10:07.200Z,4.40
2023-03-15T02:12:41.105Z,3.80
2023-03-15T02:15:09.829Z,4.10
2023-03-15T02:17:45.957Z,4.00
2023-03-15T02:20:38.251Z,3.90
2023-03-15T02:23:16.291Z,4.00
2023-03-15T02:26:25.199Z,4.10
2023-03-15T02:28:54.015Z,4.50
2023-03-15T02:31:22.092Z,4.00
2023-03-15T02:33:52.112Z,3.90
2023-03-15T02:36:26.478Z,4.10
2023-03-15T02:38:55.967Z,4.20
2023-03-15T02:41:36.896Z,4.40
2023-03-15T02:44:14.621Z,4.30
2023-03-15T02:46:44.207Z,4.00
2023-03-15T02:49:13.103Z,4.10
2023-03-15T02:51:40.627Z,4.60
2023-03-15T02:54:08.067Z,5.80
2023-03-15T02:56:35.462Z,4.00
2023-03-15T02:59:02.999Z,5.10
2023-03-15T03:01:31.741Z,4.10
2023-03-15T03:03:59.265Z,4.30
2023-03-15T03:06:26.645Z,4.10
2023-03-15T03:08:54.069Z,4.10
2023-03-15T03:11:21.524Z,4.60
2023-03-15T03:13:48.859Z,4.30
2023-03-15T03:16:16.315Z,4.70
2023-03-15T03:18:43.729Z,4.70
2023-03-15T03:21:11.124Z,4.00
2023-03-15T03:23:38.540Z,4.80
2023-03-15T03:26:16.658Z,4.00
2023-03-15T03:28:46.460Z,4.10
2023-03-15T03:31:24.216Z,4.80
2023-03-15T03:33:52.622Z,4.20
2023-03-15T03:36:20.047Z,4.20
2023-03-15T03:38:47.548Z,4.00
2023-03-15T03:41:15.428Z,4.10
2023-03-15T03:43:43.066Z,4.20
2023-03-15T03:46:10.700Z,3.80
2023-03-15T03:48:38.683Z,3.90
2023-03-15T03:51:06.386Z,4.70
2023-03-15T03:53:33.794Z,3.80
2023-03-15T03:56:04.146Z,4.00
2023-03-15T03:58:31.658Z,4.10
2023-03-15T04:00:59.203Z,3.90
2023-03-15T04:03:29.780Z,4.00
2023-03-15T04:05:59.497Z,4.40
2023-03-15T04:08:27.509Z,3.90
2023-03-15T04:10:57.654Z,4.20
2023-03-15T04:13:25.983Z,4.30
2023-03-15T04:15:57.737Z,4.40
2023-03-15T04:18:25.414Z,4.00
2023-03-15T04:20:54.762Z,4.60
2023-03-15T04:23:24.105Z,4.70
2023-03-15T04:25:55.198Z,4.40
2023-03-15T04:28:22.989Z,4.50
2023-03-15T04:30:51.462Z,3.90
2023-03-15T04:33:18.888Z,4.10
2023-03-15T04:35:46.444Z,4.30
2023-03-15T04:38:13.858Z,4.50
2023-03-15T04:40:42.811Z,4.30
2023-03-15T04:43:10.475Z,4.10
2023-03-15T04:45:37.883Z,4.10
2023-03-15T04:48:05.557Z,4.10
2023-03-15T04:50:33.097Z,4.00
2023-03-15T04:53:00.869Z,4.00
2023-03-15T04:55:28.606Z,4.70
2023-03-15T04:57:56.786Z,4.30
2023-03-15T05:00:24.621Z,4.50
2023-03-15T05:02:55.210Z,3.90
2023-03-15T05:05:24.078Z,4.00
2023-03-15T05:07:51.785Z,4.40
2023-03-15T05:10:19.631Z,4.30
2023-03-15T05:12:47.010Z,3.90
2023-03-15T05:15:14.473Z,3.90
2023-03-15T05:17:41.967Z,4.20
2023-03-15T05:20:13.858Z,3.80
2023-03-15T05:22:41.388Z,3.60
2023-03-15T05:25:10.563Z,3.60
2023-03-15T05:27:39.081Z,4.50
2023-03-15T05:30:08.714Z,4.40
2023-03-15T05:32:39.518Z,4.70
2023-03-15T05:35:08.019Z,4.60
2023-03-15T05:37:36.124Z,4.60
2023-03-15T05:40:08.237Z,4.50
2023-03-15T05:42:35.765Z,4.50
2023-03-15T05:45:03.328Z,4.90
2023-03-15T05:47:32.055Z,4.00
2023-03-15T05:50:00.553Z,4.50
2023-03-15T05:52:27.880Z,4.10
2023-03-15T05:54:55.263Z,4.20
2023-03-15T05:57:22.968Z,4.20
2023-03-15T05:59:50.305Z,4.60
2023-03-15T06:02:17.736Z,4.40
2023-03-15T06:04:45.209Z,4.30
2023-03-15T06:07:12.605Z,4.10
2023-03-15T06:09:40.020Z,4.60
2023-03-15T06:12:07.585Z,3.90
2023-03-15T06:14:35.011Z,4.00
2023-03-15T06:17:02.423Z,4.50
2023-03-15T06:19:29.976Z,4.30
2023-03-15T06:21:57.409Z,4.40
2023-03-15T06:24:25.170Z,5.50
2023-03-15T06:26:54.810Z,4.60
2023-03-15T06:29:23.101Z,4.30
2023-03-15T06:31:50.851Z,4.50
2023-03-15T06:34:18.691Z,4.50
2023-03-15T06:36:46.127Z,5.00
2023-03-15T06:39:13.803Z,4.90
2023-03-15T06:41:41.883Z,4.70
2023-03-15T06:44:09.728Z,5.30
2023-03-15T06:46:37.578Z,5.30
2023-03-15T06:49:04.917Z,5.30
2023-03-15T06:51:32.333Z,4.90
2023-03-15T06:53:59.709Z,5.40
2023-03-15T06:56:27.087Z,4.60
2023-03-15T06:58:54.523Z,4.70
2023-03-15T07:01:21.987Z,4.90
2023-03-15T07:03:49.403Z,5.60
2023-03-15T07:06:17.023Z,5.40
2023-03-15T07:08:44.505Z,5.00
2023-03-15T07:11:13.923Z,5.00
2023-03-15T07:13:41.382Z,5.00
2023-03-15T07:16:08.764Z,4.80
2023-03-15T07:18:36.173Z,4.80
2023-03-15T07:21:05.425Z,5.30
2023-03-15T07:23:32.774Z,5.00
2023-03-15T07:26:00.787Z,5.10
2023-03-15T07:28:28.876Z,4.80
2023-03-15T07:31:05.630Z,4.70
2023-03-15T07:33:35.849Z,4.40
2023-03-15T07:36:05.881Z,4.80
2023-03-15T07:38:35.035Z,4.20
2023-03-15T07:41:04.704Z,4.80
2023-03-15T07:43:32.781Z,4.40
2023-03-15T07:46:01.514Z,4.30
2023-03-15T07:48:31.825Z,4.10
2023-03-15T07:50:59.577Z,4.10
2023-03-15T07:53:27.277Z,4.70
2023-03-15T07:55:55.001Z,4.60
2023-03-15T07:58:23.008Z,4.60
2023-03-15T08:00:50.614Z,4.30
2023-03-15T08:03:18.016Z,5.00
2023-03-15T08:05:45.483Z,4.30
2023-03-15T08:08:12.958Z,4.40
2023-03-15T08:10:40.454Z,4.10
2023-03-15T08:13:07.846Z,5.00
2023-03-15T08:15:35.185Z,4.40
2023-03-15T08:18:04.188Z,4.70
2023-03-15T08:20:35.977Z,5.30
2023-03-15T08:23:03.441Z,4.80
2023-03-15T08:25:30.998Z,4.60
2023-03-15T08:27:58.474Z,4.70
2023-03-15T08:30:25.849Z,4.40
2023-03-15T08:32:53.283Z,5.30
2023-03-15T08:35:22.284Z,4.90
2023-03-15T08:37:52.371Z,4.60
2023-03-15T08:40:24.268Z,4.50
2023-03-15T08:42:56.271Z,5.00
2023-03-15T08:45:25.683Z,3.90
2023-03-15T08:48:00.648Z,4.20
2023-03-15T08:50:31.709Z,4.20
2023-03-15T08:52:59.175Z,3.50
2023-03-15T08:55:26.716Z,3.90
2023-03-15T08:57:54.144Z,4.70
2023-03-15T09:00:22.896Z,3.60
2023-03-15T09:02:55.134Z,3.40
2023-03-15T09:05:24.695Z,3.90
2023-03-15T09:07:53.237Z,3.80
2023-03-15T09:10:20.936Z,4.20
2023-03-15T09:12:53.813Z,3.70
2023-03-15T09:15:22.062Z,3.50
2023-03-15T09:17:53.604Z,3.40
2023-03-15T09:20:23.066Z,3.80
2023-03-15T09:22:56.544Z,4.30
2023-03-15T09:25:25.544Z,3.60
2023-03-15T09:27:53.389Z,3.10
2023-03-15T09:30:21.266Z,2.70
2023-03-15T09:32:49.180Z,2.70
2023-03-15T09:35:20.091Z,3.00
2023-03-15T09:37:49.669Z,2.90
2023-03-15T09:40:23.406Z,2.60
2023-03-15T09:42:57.755Z,3.20
2023-03-15T09:46:19.630Z,2.50
2023-03-15T09:49:18.780Z,3.10
2023-03-15T09:51:54.646Z,2.60
2023-03-15T09:54:29.366Z,2.70
2023-03-15T09:57:05.190Z,2.50
2023-03-15T09:59:36.542Z,2.90
2023-03-15T10:02:18.987Z,2.20
2023-03-15T10:04:49.887Z,2.10
2023-03-15T10:07:17.574Z,2.10
2023-03-15T10:09:45.811Z,2.10
2023-03-15T10:12:26.686Z,2.30
2023-03-15T10:15:22.193Z,2.60
2023-03-15T10:17:55.723Z,3.00
2023-03-15T10:20:35.047Z,2.90
2023-03-15T10:23:16.806Z,2.60
2023-03-15T10:25:45.027Z,2.10
2023-03-15T10:28:31.284Z,2.60
2023-03-15T10:31:10.520Z,2.10
2023-03-15T10:33:39.631Z,2.60
2023-03-15T10:36:26.277Z,2.50
2023-03-15T10:38:53.748Z,2.60
2023-03-15T10:41:40.893Z,2.10
2023-03-15T10:44:16.418Z,2.60
2023-03-15T10:47:04.968Z,2.10
2023-03-15T10:49:44.339Z,2.10
2023-03-15T10:52:28.795Z,2.10
2023-03-15T10:55:02.451Z,2.00
2023-03-15T10:57:40.474Z,2.00
2023-03-15T11:00:29.616Z,2.40
2023-03-15T11:03:08.151Z,1.60
2023-03-15T11:05:43.253Z,1.40
2023-03-15T11:08:18.509Z,1.60
2023-03-15T11:10:55.131Z,1.50
2023-03-15T11:13:27.055Z,1.60
2023-03-15T11:15:56.855Z,2.30
2023-03-15T11:18:44.235Z,1.80
2023-03-15T11:21:17.433Z,1.60
2023-03-15T11:23:49.419Z,1.50
2023-03-15T11:26:32.981Z,1.40
2023-03-15T11:29:31.596Z,1.50
2023-03-15T11:32:16.806Z,1.40
2023-03-15T11:35:05.833Z,1.70
2023-03-15T11:37:42.048Z,1.40
2023-03-15T11:40:32.722Z,1.80
2023-03-15T11:43:10.753Z,1.90
2023-03-15T11:46:02.136Z,1.50
2023-03-15T11:48:48.743Z,1.80
2023-03-15T11:51:16.612Z,2.20
2023-03-15T11:53:54.795Z,1.70
2023-03-15T11:56:56.817Z,2.60
2023-03-15T11:59:34.125Z,2.30
2023-03-15T12:02:24.379Z,2.30
2023-03-15T12:04:54.487Z,1.80
2023-03-15T12:07:24.402Z,1.70
2023-03-15T12:09:52.979Z,2.00
2023-03-15T12:12:26.533Z,2.30
2023-03-15T12:15:18.433Z,1.80
2023-03-15T12:17:54.636Z,2.00
2023-03-15T12:20:34.692Z,1.60
2023-03-15T12:23:17.264Z,1.40
2023-03-15T12:26:10.963Z,1.70
2023-03-15T12:28:45.434Z,1.70
2023-03-15T12:31:14.364Z,1.80
2023-03-15T12:33:58.754Z,1.50
2023-03-15T12:36:38.133Z,1.90
2023-03-15T12:39:17.674Z,1.70
2023-03-15T12:41:48.956Z,1.80
2023-03-15T12:46:49.602Z,1.30
2023-03-15T12:49:20.033Z,1.30
2023-03-15T12:52:16.110Z,1.00
2023-03-15T12:54:50.211Z,1.40
2023-03-15T12:57:49.821Z,1.20
2023-03-15T13:00:27.715Z,1.30
2023-03-15T13:03:06.133Z,1.20
2023-03-15T13:06:03.811Z,1.40
2023-03-15T13:09:06.047Z,1.20
2023-03-15T13:11:46.944Z,1.00
2023-03-15T13:14:40.514Z,1.80
2023-03-15T13:17:52.241Z,1.60
2023-03-15T13:20:42.182Z,1.30
2023-03-15T13:23:17.927Z,1.30
2023-03-15T13:26:03.925Z,0.90
2023-03-15T13:28:48.048Z,1.10
2023-03-15T13:31:29.921Z,0.90
2023-03-15T13:34:13.858Z,1.20
2023-03-15T13:37:14.307Z,1.10
2023-03-15T13:39:56.144Z,1.20
2023-03-15T13:42:25.264Z,1.10
2023-03-15T13:45:15.902Z,1.10
2023-03-15T13:47:45.942Z,1.10
2023-03-15T13:50:18.408Z,1.20
2023-03-15T13:52:47.987Z,0.90
2023-03-15T13:55:25.055Z,1.60
2023-03-15T13:58:00.250Z,1.10
2023-03-15T14:00:33.859Z,1.50
2023-03-15T14:03:06.695Z,1.00
2023-03-15T14:05:45.128Z,1.10
2023-03-15T14:08:32.754Z,1.10
2023-03-15T14:11:31.621Z,1.10
2023-03-15T14:14:04.278Z,1.40
2023-03-15T14:17:02.945Z,1.10
2023-03-15T14:19:34.855Z,1.00
2023-03-15T14:22:15.756Z,0.80
2023-03-15T14:24:47.255Z,1.30
2023-03-15T14:27:19.676Z,1.40
2023-03-15T14:29:51.856Z,1.20
2023-03-15T14:32:35.340Z,1.00
2023-03-15T14:35:38.303Z,1.10
2023-03-15T14:38:22.568Z,1.00
2023-03-15T14:40:52.344Z,1.00
2023-03-15T14:43:20.236Z,1.30
2023-03-15T14:45:49.130Z,1.30
2023-03-15T14:48:28.456Z,1.60
2023-03-15T14:50:56.626Z,1.40
2023-03-15T14:53:26.330Z,1.40
2023-03-15T14:55:53.733Z,1.10
2023-03-15T14:58:22.829Z,1.20
2023-03-15T15:00:55.767Z,1.30
2023-03-15T15:03:32.252Z,1.40
2023-03-15T15:06:01.947Z,1.60
2023-03-15T15:08:31.803Z,1.00
2023-03-15T15:11:00.018Z,1.20
2023-03-15T15:13:29.859Z,1.40
2023-03-15T15:15:57.759Z,1.50
2023-03-15T15:18:28.845Z,1.20
2023-03-15T15:20:59.164Z,1.70
2023-03-15T15:23:28.813Z,1.20
2023-03-15T15:26:03.857Z,1.20
2023-03-15T15:28:36.643Z,1.10
2023-03-15T15:31:07.147Z,1.10
2023-03-15T15:33:35.213Z,1.20
2023-03-15T15:36:04.558Z,1.00
2023-03-15T15:38:38.693Z,1.50
2023-03-15T15:41:13.725Z,1.00
2023-03-15T15:43:43.036Z,1.50
2023-03-15T15:46:12.254Z,1.40
2023-03-15T15:48:40.601Z,1.40
2023-03-15T15:51:21.313Z,1.30
2023-03-15T15:53:49.045Z,1.20
2023-03-15T15:56:16.756Z,1.70
2023-03-15T15:58:45.088Z,1.50
2023-03-15T16:01:16.511Z,1.20
2023-03-15T16:03:44.045Z,1.20
2023-03-15T16:06:17.897Z,1.00
2023-03-15T16:08:47.069Z,1.10
2023-03-15T16:11:16.922Z,1.30
2023-03-15T16:13:46.126Z,1.40
2023-03-15T16:16:15.822Z,1.20
2023-03-15T16:18:44.572Z,1.30
2023-03-15T16:21:22.543Z,1.40
2023-03-15T16:24:01.925Z,2.00
2023-03-15T16:26:29.388Z,1.40
2023-03-15T16:28:56.886Z,1.20
2023-03-15T16:31:24.480Z,1.40
2023-03-15T16:33:51.989Z,1.40
2023-03-15T16:36:22.201Z,1.20
2023-03-15T16:38:49.674Z,1.20
2023-03-15T16:41:18.035Z,1.40
2023-03-15T16:43:47.302Z,1.10
2023-03-15T16:46:17.336Z,1.40
2023-03-15T16:48:45.025Z,1.10
2023-03-15T16:51:15.337Z,1.30
2023-03-15T16:53:44.736Z,1.30
2023-03-15T16:56:14.645Z,0.90
2023-03-15T16:58:43.930Z,1.20
2023-03-15T17:01:11.536Z,1.30
2023-03-15T17:03:39.018Z,1.90
2023-03-15T17:06:15.527Z,1.50
2023-03-15T17:08:43.338Z,1.20
2023-03-15T17:11:11.037Z,1.80
2023-03-15T17:13:42.025Z,1.20
2023-03-15T17:16:15.907Z,1.20
2023-03-15T17:18:43.803Z,1.10
2023-03-15T17:21:15.508Z,1.20
2023-03-15T17:23:43.808Z,1.00
2023-03-15T17:26:17.722Z,1.30
2023-03-15T17:28:45.973Z,1.20
2023-03-15T17:31:25.614Z,1.10
2023-03-15T17:33:53.339Z,1.10
2023-03-15T17:36:25.808Z,1.30
2023-03-15T17:38:54.350Z,1.30
2023-03-15T17:41:24.807Z,1.20
2023-03-15T17:43:52.733Z,1.60
2023-03-15T17:46:28.239Z,1.40
2023-03-15T17:48:57.779Z,1.40
2023-03-15T17:51:32.278Z,1.60
2023-03-15T17:54:00.636Z,2.20
2023-03-15T17:56:29.909Z,1.60
2023-03-15T17:58:57.332Z,1.60
2023-03-15T18:01:27.729Z,1.70
2023-03-15T18:03:55.817Z,1.70
2023-03-15T18:06:23.969Z,1.80
2023-03-15T18:08:51.464Z,1.80
2023-03-15T18:11:22.960Z,1.50
2023-03-15T18:13:50.589Z,1.70
2023-03-15T18:16:18.823Z,2.40
2023-03-15T18:18:46.374Z,2.00
2023-03-15T18:21:23.654Z,1.90
2023-03-15T18:23:52.096Z,1.90
2023-03-15T18:26:20.643Z,1.70
2023-03-15T18:28:51.575Z,2.30
2023-03-15T18:31:25.632Z,2.10
2023-03-15T18:33:53.668Z,2.10
2023-03-15T18:36:21.384Z,2.10
2023-03-15T18:38:48.866Z,1.90
2023-03-15T18:41:20.826Z,3.70
2023-03-15T18:43:52.414Z,2.30
2023-03-15T18:46:24.374Z,2.30
2023-03-15T18:48:54.531Z,2.30
2023-03-15T18:51:28.287Z,4.40
2023-03-15T18:53:56.180Z,3.70
2023-03-15T18:56:27.075Z,4.40
2023-03-15T18:58:55.274Z,3.10
2023-03-15T19:01:24.395Z,5.60
2023-03-15T19:03:53.626Z,5.80
2023-03-15T19:06:22.856Z,5.30
2023-03-15T19:08:53.482Z,3.80
2023-03-15T19:11:22.008Z,4.80
2023-03-15T19:13:51.222Z,4.80
2023-03-15T19:16:22.120Z,5.40
2023-03-15T19:18:51.701Z,5.60
2023-03-15T19:21:20.325Z,4.20
2023-03-15T19:23:48.100Z,4.90
2023-03-15T19:26:15.602Z,5.70
2023-03-15T19:28:43.795Z,6.00
2023-03-15T19:31:11.531Z,11.10
2023-03-15T19:33:39.334Z,11.10
2023-03-15T19:36:07.654Z,8.30
2023-03-15T19:38:35.188Z,9.00
2023-03-15T19:41:07.859Z,8.70
2023-03-15T19:43:37.878Z,7.50
2023-03-15T19:46:07.959Z,6.60
2023-03-15T19:48:36.570Z,7.80
2023-03-15T19:51:04.631Z,7.60
2023-03-15T19:53:32.463Z,8.10
2023-03-15T19:56:06.133Z,6.60
2023-03-15T19:58:33.602Z,6.90
2023-03-15T20:01:01.534Z,7.40
2023-03-15T20:03:29.097Z,7.40
2023-03-15T20:05:56.541Z,7.10
2023-03-15T20:08:26.273Z,7.10
2023-03-15T20:11:00.485Z,8.60
2023-03-15T20:13:28.232Z,13.80
2023-03-15T20:15:55.749Z,12.80
2023-03-15T20:18:23.244Z,10.80
2023-03-15T20:20:51.256Z,12.30
2023-03-15T20:23:19.786Z,11.10
2023-03-15T20:25:47.271Z,9.00
2023-03-15T20:28:14.735Z,10.40
2023-03-15T20:30:44.387Z,10.40
2023-03-15T20:33:11.820Z,10.00
2023-03-15T20:35:39.181Z,8.70
2023-03-15T20:38:09.276Z,7.80
2023-03-15T20:40:39.688Z,6.20
2023-03-15T20:43:07.164Z,5.90
2023-03-15T20:45:34.693Z,5.00
2023-03-15T20:48:02.134Z,5.90
2023-03-15T20:50:29.557Z,5.30
2023-03-15T20:52:56.920Z,6.70
2023-03-15T20:55:24.739Z,6.00
2023-03-15T20:57:53.403Z,6.40
2023-03-15T21:00:22.837Z,6.40
2023-03-15T21:02:50.595Z,4.90
2023-03-15T21:05:18.035Z,5.30
2023-03-15T21:07:46.253Z,5.60
2023-03-15T21:10:14.143Z,5.30
2023-03-15T21:12:44.052Z,5.80
2023-03-15T21:15:17.813Z,6.20
2023-03-15T21:17:48.825Z,6.20
2023-03-15T21:20:18.244Z,7.50
2023-03-15T21:22:45.856Z,6.80
2023-03-15T21:25:13.530Z,6.90
2023-03-15T21:27:41.183Z,5.80
2023-03-15T21:30:13.873Z,6.20
2023-03-15T21:32:45.227Z,7.70
2023-03-15T21:37:40.335Z,5.60
2023-03-15T21:40:09.933Z,5.80
2023-03-15T21:42:37.765Z,6.20
2023-03-15T21:45:08.192Z,6.10
2023-03-15T21:47:35.777Z,5.20
2023-03-15T21:50:03.251Z,5.00
2023-03-15T21:52:30.690Z,4.90
2023-03-15T21:54:58.358Z,4.80
2023-03-15T21:57:25.824Z,5.10
2023-03-15T21:59:53.184Z,4.60
2023-03-15T22:02:20.536Z,4.70
2023-03-15T22:04:47.911Z,4.80
2023-03-15T22:07:15.329Z,4.70
2023-03-15T22:09:43.352Z,5.70
2023-03-15T22:12:10.812Z,6.00
2023-03-15T22:14:38.194Z,8.10
2023-03-15T22:17:05.671Z,6.40
2023-03-15T22:19:33.125Z,6.30
2023-03-15T22:22:01.142Z,5.40
2023-03-15T22:24:28.545Z,4.90
2023-03-15T22:26:56.248Z,3.90
2023-03-15T22:29:23.622Z,4.00
2023-03-15T22:31:51.674Z,4.70
2023-03-15T22:34:19.014Z,3.70
2023-03-15T22:36:46.358Z,3.70
2023-03-15T22:39:14.533Z,3.30
2023-03-15T22:41:42.084Z,3.50
2023-03-15T22:44:09.525Z,3.60
2023-03-15T22:46:37.025Z,3.20
2023-03-15T22:49:04.660Z,3.30
2023-03-15T22:51:32.096Z,3.70
2023-03-15T22:53:59.484Z,4.10
2023-03-15T22:56:26.800Z,4.50
2023-03-15T22:58:55.640Z,4.10
2023-03-15T23:01:23.370Z,3.80
2023-03-15T23:03:51.126Z,4.00
2023-03-15T23:06:19.721Z,3.60
2023-03-15T23:08:47.100Z,3.20
2023-03-15T23:11:14.526Z,2.80
2023-03-15T23:13:42.394Z,2.90
2023-03-15T23:16:10.034Z,2.90
2023-03-15T23:18:37.415Z,3.30
2023-03-15T23:21:10.302Z,2.70
2023-03-15T23:23:38.980Z,2.60
2023-03-15T23:26:06.838Z,3.60
2023-03-15T23:28:34.714Z,3.70
2023-03-15T23:31:04.990Z,2.70
2023-03-15T23:33:35.821Z,2.40
2023-03-15T23:36:09.420Z,3.00
2023-03-15T23:38:36.873Z,2.30
2023-03-15T23:41:05.067Z,2.40
2023-03-15T23:43:33.794Z,2.20
2023-03-15T23:46:04.939Z,2.10
2023-03-15T23:48:35.636Z,2.30
2023-03-15T23:51:03.462Z,2.70
2023-03-15T23:53:31.948Z,2.40
2023-03-15T23:55:59.451Z,2.20
2023-03-15T23:58:27.497Z,2.50
